Time;durP1;ratioP1;P1;durP2;ratioP2;P2;SDS_P1;SDS_P2;PMS_P1;PMS_P2;Temp;Humidity;BMP_temperature;BMP_pressure;BME280_temperature;BME280_humidity;BME280_pressure;Samples;Min_cycle;Max_cycle;Signal;HPM_P1;HPM_P2
2023/11/28 00:00:10;;;;;;;2.60;2.40;;;;;;;2.43;100.00;99596.47;4852142;29;20070;-67
2023/11/28 00:03:01;;;;;;;2.10;2.00;;;;;;;2.43;100.00;99612.59;4848275;29;20053;-67
2023/11/28 00:05:49;;;;;;;2.08;1.92;;;;;;;2.41;100.00;99614.72;4826466;29;20046;-67
2023/11/28 00:08:37;;;;;;;3.13;1.90;;;;;;;2.38;100.00;99631.31;4831622;29;20046;-68
2023/11/28 00:11:25;;;;;;;1.73;1.63;;;;;;;2.41;100.00;99622.78;4825267;29;20077;-68
2023/11/28 00:14:13;;;;;;;1.55;1.45;;;;;;;2.39;100.00;99634.84;4814551;29;20057;-67
2023/11/28 00:17:01;;;;;;;2.38;2.00;;;;;;;2.33;100.00;99644.66;4826382;29;20549;-68
2023/11/28 00:19:49;;;;;;;1.80;1.70;;;;;;;2.32;100.00;99645.75;4835545;29;20143;-67
2023/11/28 00:22:37;;;;;;;1.85;1.75;;;;;;;2.39;100.00;99645.59;4843372;29;20058;-67
2023/11/28 00:25:25;;;;;;;2.08;1.90;;;;;;;2.39;100.00;99662.53;4841653;29;20053;-68
2023/11/28 00:28:13;;;;;;;1.70;1.60;;;;;;;2.39;100.00;99665.22;4843717;29;20521;-68
2023/11/28 00:31:01;;;;;;;1.60;1.50;;;;;;;2.40;100.00;99690.22;4827089;29;20054;-69
2023/11/28 00:33:49;;;;;;;2.33;2.13;;;;;;;2.34;100.00;99678.56;4839739;29;20046;-68
2023/11/28 00:36:37;;;;;;;2.10;2.00;;;;;;;2.33;100.00;99676.91;4829359;29;20645;-67
2023/11/28 00:39:25;;;;;;;1.92;1.83;;;;;;;2.37;100.00;99688.84;4825424;29;20057;-67
2023/11/28 00:42:13;;;;;;;3.50;2.13;;;;;;;2.34;100.00;99692.00;4811836;29;20125;-67
2023/11/28 00:45:04;;;;;;;2.65;2.45;;;;;;;2.36;100.00;99687.22;4817782;29;20058;-68
2023/11/28 00:47:53;;;;;;;2.90;2.70;;;;;;;2.34;100.00;99721.56;4810846;29;20487;-68
2023/11/28 00:50:41;;;;;;;2.20;2.00;;;;;;;2.40;100.00;99707.16;4813597;29;20186;-68
2023/11/28 00:53:29;;;;;;;2.30;2.10;;;;;;;2.45;100.00;99712.63;4815259;29;20054;-68
2023/11/28 00:56:19;;;;;;;2.80;2.60;;;;;;;2.36;100.00;99714.09;4839569;29;20132;-67
2023/11/28 00:59:06;;;;;;;3.25;2.78;;;;;;;2.37;100.00;99715.72;4842037;29;20057;-67
2023/11/28 01:01:54;;;;;;;3.10;2.80;;;;;;;2.37;100.00;99731.84;4831837;29;20129;-68
2023/11/28 01:04:43;;;;;;;3.58;3.20;;;;;;;2.37;100.00;99739.91;4832367;29;20072;-68
2023/11/28 01:07:31;;;;;;;4.50;3.13;;;;;;;2.32;100.00;99755.94;4829291;29;20046;-69
2023/11/28 01:10:19;;;;;;;3.83;3.30;;;;;;;2.33;100.00;99753.03;4846989;29;20053;-67
2023/11/28 01:13:07;;;;;;;3.33;3.00;;;;;;;2.31;100.00;99754.31;4847412;29;20042;-67
2023/11/28 01:15:55;;;;;;;4.47;3.45;;;;;;;2.31;100.00;99770.44;4829620;29;20140;-68
2023/11/28 01:18:45;;;;;;;5.53;3.53;;;;;;;2.26;100.00;99764.94;4811293;29;20050;-68
2023/11/28 01:21:32;;;;;;;4.30;3.40;;;;;;;2.27;100.00;99764.72;4824346;29;20064;-67
2023/11/28 01:24:20;;;;;;;8.85;3.53;;;;;;;2.29;100.00;99777.94;4824108;29;20074;-67
2023/11/28 01:27:09;;;;;;;5.22;3.15;;;;;;;2.27;100.00;99775.47;4840790;29;20113;-67
2023/11/28 01:29:57;;;;;;;3.83;3.13;;;;;;;2.34;100.00;99786.09;4820296;29;20053;-68
2023/11/28 01:32:45;;;;;;;3.38;2.95;;;;;;;2.35;100.00;99787.72;4824329;29;20133;-68
2023/11/28 01:35:33;;;;;;;3.67;2.83;;;;;;;2.27;100.00;99796.97;4833985;29;20046;-67
2023/11/28 01:38:21;;;;;;;4.32;3.13;;;;;;;2.26;100.00;99794.50;4821616;29;20051;-68
2023/11/28 01:41:10;;;;;;;3.95;3.15;;;;;;;2.30;100.00;99812.63;4823948;29;20055;-68
2023/11/28 01:44:03;;;;;;;3.55;3.00;;;;;;;2.32;100.00;99820.44;4824907;29;20126;-67
2023/11/28 01:46:52;;;;;;;3.22;2.92;;;;;;;2.23;100.00;99838.00;4839235;29;20126;-68
2023/11/28 01:49:41;;;;;;;3.05;2.70;;;;;;;2.23;100.00;99844.19;4829404;29;20053;-68
2023/11/28 01:52:32;;;;;;;3.67;2.80;;;;;;;2.23;100.00;99849.56;4840281;29;20065;-68
2023/11/28 01:55:21;;;;;;;3.88;3.03;;;;;;;2.27;100.00;99855.28;4838920;29;20140;-67
2023/11/28 01:58:09;;;;;;;3.38;3.08;;;;;;;2.24;100.00;99864.66;4829330;29;20054;-68
2023/11/28 02:00:57;;;;;;;3.83;3.10;;;;;;;2.20;100.00;99862.66;4805135;29;20052;-67
2023/11/28 02:03:45;;;;;;;3.10;2.80;;;;;;;2.18;100.00;99867.44;4822321;29;20529;-68
2023/11/28 02:06:34;;;;;;;5.13;3.10;;;;;;;2.16;100.00;99872.25;4845967;29;20092;-68
2023/11/28 02:09:22;;;;;;;3.45;3.15;;;;;;;2.11;100.00;99876.44;4833064;29;20051;-68
2023/11/28 02:12:10;;;;;;;4.30;3.30;;;;;;;2.11;100.00;99889.88;4817377;29;20070;-68
2023/11/28 02:15:00;;;;;;;4.50;3.60;;;;;;;2.04;100.00;99899.13;4813376;29;20522;-67
2023/11/28 02:17:50;;;;;;;4.38;3.25;;;;;;;2.03;100.00;99900.19;4814581;29;20070;-68
2023/11/28 02:20:39;;;;;;;4.03;2.90;;;;;;;2.07;100.00;99894.09;4828091;29;20082;-69
2023/11/28 02:23:27;;;;;;;2.92;2.63;;;;;;;2.11;100.00;99911.38;4835259;29;20054;-69
2023/11/28 02:26:25;;;;;;;3.60;3.08;;;;;;;2.02;100.00;99907.44;4831939;29;20049;-67
2023/11/28 02:29:13;;;;;;;4.70;3.40;;;;;;;2.08;100.00;99905.66;4834850;29;20178;-68
2023/11/28 02:32:01;;;;;;;4.13;3.15;;;;;;;2.11;100.00;99916.75;4833571;29;20050;-68
2023/11/28 02:34:49;;;;;;;4.53;3.00;;;;;;;2.09;100.00;99916.19;4833577;29;20057;-68
2023/11/28 02:37:37;;;;;;;6.63;3.33;;;;;;;2.04;100.00;99924.09;4826973;29;20058;-68
2023/11/28 02:40:25;;;;;;;3.40;2.80;;;;;;;2.00;100.00;99936.41;4816585;29;20061;-68
2023/11/28 02:43:18;;;;;;;4.88;3.17;;;;;;;1.99;100.00;99925.88;4829712;29;20077;-68
2023/11/28 02:46:07;;;;;;;4.65;3.40;;;;;;;2.05;100.00;99941.88;4831050;29;20058;-67
2023/11/28 02:48:55;;;;;;;3.88;3.10;;;;;;;1.97;100.00;99939.53;4815077;29;20058;-68
2023/11/28 02:51:43;;;;;;;4.22;3.25;;;;;;;1.98;100.00;99938.50;4829246;29;20054;-67
2023/11/28 02:54:31;;;;;;;3.55;3.10;;;;;;;1.92;100.00;99944.78;4815420;29;20500;-68
2023/11/28 02:57:19;;;;;;;3.67;3.10;;;;;;;1.90;100.00;99942.34;4843015;29;20639;-68
2023/11/28 03:00:08;;;;;;;5.63;3.55;;;;;;;1.92;100.00;99956.38;4841539;29;20133;-68
2023/11/28 03:02:56;;;;;;;3.70;3.20;;;;;;;1.94;100.00;99950.75;4839661;29;20091;-68
2023/11/28 03:05:44;;;;;;;3.92;2.80;;;;;;;1.91;100.00;99957.41;4827342;29;20144;-67
2023/11/28 03:08:33;;;;;;;4.10;3.20;;;;;;;1.93;100.00;99962.56;4816006;29;20576;-68
2023/11/28 03:11:21;;;;;;;5.35;3.50;;;;;;;1.91;100.00;99970.03;4821143;29;20075;-68
2023/11/28 03:14:09;;;;;;;3.90;3.10;;;;;;;1.94;100.00;99980.28;4815259;29;20137;-67
2023/11/28 03:16:57;;;;;;;4.45;3.42;;;;;;;1.90;100.00;99997.91;4811951;29;20085;-67
2023/11/28 03:19:45;;;;;;;3.90;3.17;;;;;;;1.90;100.00;99996.06;4832289;29;20095;-67
2023/11/28 03:22:33;;;;;;;3.47;2.97;;;;;;;1.85;100.00;100000.47;4816185;29;20065;-68
2023/11/28 03:25:21;;;;;;;5.28;3.70;;;;;;;1.93;100.00;100010.91;4840095;29;20050;-67
2023/11/28 03:28:09;;;;;;;3.90;3.40;;;;;;;1.91;100.00;100013.00;4843114;29;20079;-69
2023/11/28 03:30:58;;;;;;;5.57;3.35;;;;;;;1.90;100.00;100022.09;4827817;29;20203;-67
2023/11/28 03:33:46;;;;;;;6.28;3.45;;;;;;;1.94;100.00;100028.66;4831176;29;20055;-67
2023/11/28 03:36:34;;;;;;;6.22;4.00;;;;;;;1.94;100.00;100033.22;4825754;29;20077;-68
2023/11/28 03:39:23;;;;;;;4.80;3.80;;;;;;;1.88;100.00;100035.78;4824863;29;20129;-67
2023/11/28 03:42:11;;;;;;;4.88;3.75;;;;;;;1.90;100.00;100035.53;4821012;29;20065;-67
2023/11/28 03:44:59;;;;;;;5.85;3.88;;;;;;;1.85;100.00;100035.41;4829986;29;20125;-68
2023/11/28 03:47:47;;;;;;;6.68;3.63;;;;;;;1.79;100.00;100041.69;4844516;29;20062;-68
2023/11/28 03:50:35;;;;;;;4.53;3.53;;;;;;;1.79;100.00;100052.44;4857415;29;20099;-65
2023/11/28 03:53:24;;;;;;;5.00;3.80;;;;;;;1.76;100.00;100053.72;4819952;29;20058;-68
2023/11/28 03:56:13;;;;;;;5.20;3.88;;;;;;;1.71;100.00;100064.34;4844290;29;20047;-67
2023/11/28 03:59:02;;;;;;;5.70;4.07;;;;;;;1.74;100.00;100065.75;4834631;29;20050;-67
2023/11/28 04:01:50;;;;;;;7.32;4.20;;;;;;;1.85;100.00;100073.00;4843137;29;20523;-67
2023/11/28 04:04:38;;;;;;;5.53;3.88;;;;;;;1.80;100.00;100080.94;4861901;29;20060;-64
2023/11/28 04:07:27;;;;;;;6.65;4.18;;;;;;;1.73;100.00;100086.38;4826500;29;20407;-67
2023/11/28 04:10:15;;;;;;;8.25;4.63;;;;;;;1.69;100.00;100091.41;4832220;29;20050;-67
2023/11/28 04:13:03;;;;;;;6.72;4.00;;;;;;;1.68;100.00;100089.78;4823964;29;20141;-67
2023/11/28 04:15:51;;;;;;;6.13;3.92;;;;;;;1.70;100.00;100093.03;4826054;29;20095;-67
2023/11/28 04:18:41;;;;;;;6.03;3.97;;;;;;;1.74;100.00;100100.66;4845136;29;20049;-68
2023/11/28 04:21:29;;;;;;;5.82;3.70;;;;;;;1.72;100.00;100098.19;4853964;29;20427;-67
2023/11/28 04:24:17;;;;;;;8.07;4.60;;;;;;;1.67;100.00;100104.25;4856770;29;20070;-67
2023/11/28 04:27:05;;;;;;;5.32;3.55;;;;;;;1.65;100.00;100100.94;4855408;29;20550;-67
2023/11/28 04:29:54;;;;;;;5.65;3.63;;;;;;;1.65;100.00;100098.28;4852814;29;20072;-68
2023/11/28 04:32:42;;;;;;;6.45;3.92;;;;;;;1.57;100.00;100098.59;4817170;29;20137;-67
2023/11/28 04:35:30;;;;;;;6.18;3.85;;;;;;;1.59;100.00;100101.03;4826772;29;20515;-67
2023/11/28 04:38:19;;;;;;;4.82;3.50;;;;;;;1.56;100.00;100113.03;4835353;29;20061;-67
2023/11/28 04:41:14;;;;;;;6.25;3.80;;;;;;;1.54;100.00;100115.16;4841677;29;20058;-67
2023/11/28 04:44:04;;;;;;;5.65;3.67;;;;;;;1.39;100.00;100120.91;4825605;29;20066;-67
2023/11/28 04:46:52;;;;;;;6.43;3.50;;;;;;;1.41;100.00;100131.41;4825342;29;20099;-68
2023/11/28 04:49:40;;;;;;;5.78;3.38;;;;;;;1.42;100.00;100138.41;4813768;29;20042;-68
2023/11/28 04:52:28;;;;;;;4.93;3.08;;;;;;;1.43;100.00;100146.25;4826722;29;20058;-68
2023/11/28 04:55:16;;;;;;;6.18;3.60;;;;;;;1.35;100.00;100151.94;4833116;29;20057;-68
2023/11/28 04:58:04;;;;;;;4.95;3.35;;;;;;;1.30;100.00;100161.69;4841824;29;20530;-68
2023/11/28 05:00:52;;;;;;;4.82;3.38;;;;;;;1.22;100.00;100179.72;4842536;29;20057;-67
2023/11/28 05:03:41;;;;;;;4.90;3.42;;;;;;;1.12;100.00;100174.03;4830680;29;20058;-67
2023/11/28 05:06:31;;;;;;;5.07;2.92;;;;;;;1.04;100.00;100185.06;4825170;29;20060;-68
2023/11/28 05:09:20;;;;;;;5.88;3.30;;;;;;;0.97;100.00;100195.03;4826657;29;20136;-68
2023/11/28 05:12:08;;;;;;;2.83;2.35;;;;;;;0.90;100.00;100195.09;4842305;29;20058;-67
2023/11/28 05:14:57;;;;;;;5.20;2.85;;;;;;;0.85;100.00;100209.16;4829453;29;20503;-67
2023/11/28 05:17:45;;;;;;;5.35;2.72;;;;;;;0.89;100.00;100217.59;4840695;29;20062;-67
2023/11/28 05:20:34;;;;;;;5.28;2.80;;;;;;;0.93;100.00;100209.94;4812184;29;20054;-68
2023/11/28 05:23:23;;;;;;;4.70;2.85;;;;;;;0.90;100.00;100219.22;4824845;29;20058;-69
2023/11/28 05:26:11;;;;;;;4.55;2.83;;;;;;;0.92;100.00;100227.06;4824085;29;20059;-67
2023/11/28 05:28:59;;;;;;;4.93;3.08;;;;;;;0.93;100.00;100228.69;4812465;29;20046;-69
2023/11/28 05:31:47;;;;;;;4.05;2.80;;;;;;;0.78;100.00;100227.16;4840033;29;20049;-69
2023/11/28 05:34:36;;;;;;;3.33;2.65;;;;;;;0.75;100.00;100243.69;4840385;29;20045;-68
2023/11/28 05:37:24;;;;;;;3.78;2.83;;;;;;;0.77;100.00;100249.66;4828645;29;20053;-67
2023/11/28 05:40:13;;;;;;;5.35;2.70;;;;;;;0.76;100.00;100260.59;4839387;29;20058;-67
2023/11/28 05:43:01;;;;;;;3.75;2.63;;;;;;;0.75;100.00;100267.81;4841348;29;20072;-67
2023/11/28 05:45:49;;;;;;;4.13;2.50;;;;;;;0.81;100.00;100275.00;4823221;29;20135;-67
2023/11/28 05:48:37;;;;;;;3.38;2.28;;;;;;;0.83;100.00;100286.31;4810703;29;20443;-67
2023/11/28 05:51:26;;;;;;;2.78;2.30;;;;;;;0.78;100.00;100280.78;4824811;29;20051;-69
2023/11/28 05:54:14;;;;;;;4.75;2.67;;;;;;;0.74;100.00;100281.44;4824203;29;20180;-68
2023/11/28 05:57:03;;;;;;;3.33;2.30;;;;;;;0.81;100.00;100280.34;4810265;29;20054;-67
2023/11/28 05:59:51;;;;;;;4.30;2.58;;;;;;;0.72;100.00;100283.50;4811233;29;20054;-68
2023/11/28 06:02:40;;;;;;;2.92;2.40;;;;;;;0.66;100.00;100285.22;4841911;29;20053;-66
2023/11/28 06:05:29;;;;;;;2.45;2.20;;;;;;;0.62;100.00;100292.03;4828652;29;20061;-67
2023/11/28 06:08:17;;;;;;;3.35;2.50;;;;;;;0.61;100.00;100299.25;4829141;29;20518;-68
2023/11/28 06:11:07;;;;;;;3.75;2.45;;;;;;;0.65;100.00;100305.03;4837114;29;20043;-68
2023/11/28 06:13:56;;;;;;;3.95;2.70;;;;;;;0.61;100.00;100309.16;4826715;29;20072;-68
2023/11/28 06:16:44;;;;;;;3.72;2.58;;;;;;;0.63;100.00;100318.63;4840919;29;20062;-68
2023/11/28 06:19:33;;;;;;;3.38;2.65;;;;;;;0.51;100.00;100325.72;4827983;29;20444;-68
2023/11/28 06:22:22;;;;;;;2.92;2.60;;;;;;;0.44;100.00;100324.09;4827117;29;20145;-67
2023/11/28 06:25:10;;;;;;;4.57;2.78;;;;;;;0.44;100.00;100329.47;4839853;29;20042;-67
2023/11/28 06:27:58;;;;;;;4.68;2.80;;;;;;;0.45;100.00;100336.47;4847853;29;20049;-68
2023/11/28 06:30:48;;;;;;;4.15;2.90;;;;;;;0.50;100.00;100340.13;4828770;29;20424;-68
2023/11/28 06:33:36;;;;;;;4.13;2.70;;;;;;;0.54;100.00;100346.72;4809364;29;20047;-68
2023/11/28 06:36:24;;;;;;;4.70;2.70;;;;;;;0.57;100.00;100367.72;4835983;29;20837;-67
2023/11/28 06:39:12;;;;;;;4.40;2.85;;;;;;;0.58;100.00;100360.53;4827459;29;20530;-67
2023/11/28 06:42:01;;;;;;;3.63;2.85;;;;;;;0.63;100.00;100372.25;4836286;29;20060;-68
2023/11/28 06:44:49;;;;;;;4.50;2.70;;;;;;;0.55;100.00;100377.03;4833628;29;20062;-67
2023/11/28 06:47:39;;;;;;;4.70;2.66;;;;;;;0.52;100.00;100388.19;4510915;29;10001138;-68
2023/11/28 06:50:27;;;;;;;6.15;3.00;;;;;;;0.54;100.00;100388.78;4826092;29;20156;-67
2023/11/28 06:53:15;;;;;;;4.45;2.92;;;;;;;0.57;100.00;100396.41;4842001;29;20521;-66
2023/11/28 06:56:04;;;;;;;4.30;2.90;;;;;;;0.63;100.00;100393.69;4837000;29;20534;-66
2023/11/28 06:58:52;;;;;;;3.33;2.67;;;;;;;0.61;100.00;100397.63;4823755;29;20652;-67
2023/11/28 07:01:41;;;;;;;4.00;2.85;;;;;;;0.73;100.00;100397.78;4824830;29;20043;-68
2023/11/28 07:04:29;;;;;;;2.88;2.60;;;;;;;0.69;100.00;100397.38;4821847;29;20054;-67
2023/11/28 07:07:17;;;;;;;5.07;2.90;;;;;;;0.74;100.00;100405.59;4823750;29;20192;-68
2023/11/28 07:10:08;;;;;;;4.88;3.00;;;;;;;0.79;100.00;100411.13;4826753;29;20131;-68
2023/11/28 07:12:58;;;;;;;3.05;2.70;;;;;;;0.76;100.00;100416.13;4842308;29;20180;-68
2023/11/28 07:15:46;;;;;;;3.65;2.60;;;;;;;0.65;100.00;100423.00;4843618;29;20059;-66
2023/11/28 07:18:34;;;;;;;4.75;2.70;;;;;;;0.66;100.00;100427.31;4829073;29;20141;-68
2023/11/28 07:21:24;;;;;;;4.57;2.70;;;;;;;0.76;100.00;100429.53;4834992;29;20147;-67
2023/11/28 07:24:12;;;;;;;4.20;2.60;;;;;;;0.81;100.00;100435.88;4844127;29;20518;-67
2023/11/28 07:27:00;;;;;;;4.82;2.95;;;;;;;0.90;100.00;100443.72;4830901;29;20380;-67
2023/11/28 07:29:48;;;;;;;3.63;2.70;;;;;;;0.98;100.00;100448.81;4837469;29;20057;-68
2023/11/28 07:32:37;;;;;;;6.82;2.88;;;;;;;0.92;100.00;100453.19;4834059;29;20070;-68
2023/11/28 07:35:25;;;;;;;6.38;2.95;;;;;;;0.82;100.00;100456.31;4819250;29;20052;-67
2023/11/28 07:38:13;;;;;;;4.45;2.70;;;;;;;0.84;100.00;100459.63;4839596;29;20078;-68
2023/11/28 07:41:01;;;;;;;6.05;2.90;;;;;;;0.91;100.00;100466.78;4838533;29;20082;-68
2023/11/28 07:43:49;;;;;;;3.97;2.63;;;;;;;0.96;100.00;100475.88;4817966;29;20236;-67
2023/11/28 07:46:38;;;;;;;10.70;3.10;;;;;;;0.95;100.00;100470.72;4837342;29;20049;-66
2023/11/28 07:49:26;;;;;;;4.28;2.95;;;;;;;1.02;100.00;100484.91;4825972;29;20066;-66
2023/11/28 07:52:14;;;;;;;5.80;2.60;;;;;;;1.00;100.00;100495.03;4834273;29;20159;-66
2023/11/28 07:55:03;;;;;;;6.32;2.70;;;;;;;0.90;100.00;100489.31;4825126;29;20555;-67
2023/11/28 07:57:50;;;;;;;9.73;2.95;;;;;;;0.95;100.00;100497.53;4826393;29;20204;-68
2023/11/28 08:00:38;;;;;;;4.50;2.90;;;;;;;1.01;100.00;100499.34;4831560;29;20070;-66
2023/11/28 08:03:26;;;;;;;3.47;2.40;;;;;;;1.07;100.00;100498.50;4833996;29;20512;-66
2023/11/28 08:06:17;;;;;;;5.40;2.78;;;;;;;1.15;100.00;100506.31;4837722;29;20070;-69
2023/11/28 08:09:05;;;;;;;4.80;2.50;;;;;;;1.22;100.00;100508.97;4838441;29;20063;-66
2023/11/28 08:11:53;;;;;;;6.32;2.90;;;;;;;1.17;100.00;100512.28;4862843;29;20054;-66
2023/11/28 08:14:42;;;;;;;3.95;2.50;;;;;;;1.13;100.00;100510.22;4860854;29;20098;-67
2023/11/28 08:17:30;;;;;;;4.65;2.70;;;;;;;1.12;100.00;100509.41;4848931;29;20050;-67
2023/11/28 08:20:18;;;;;;;3.95;2.58;;;;;;;1.07;100.00;100517.28;4857280;29;20050;-64
2023/11/28 08:23:06;;;;;;;4.60;2.90;;;;;;;1.10;100.00;100516.03;4843855;29;20137;-66
2023/11/28 08:25:55;;;;;;;3.30;2.20;;;;;;;1.04;100.00;100525.78;4856285;29;20059;-69
2023/11/28 08:28:43;;;;;;;4.38;2.30;;;;;;;1.02;100.00;100514.44;4836554;29;20464;-69
2023/11/28 08:31:31;;;;;;;7.43;2.70;;;;;;;1.03;100.00;100533.00;4829291;29;20371;-69
2023/11/28 08:34:20;;;;;;;5.00;2.35;;;;;;;0.98;100.00;100540.84;4829520;29;20060;-68
2023/11/28 08:37:08;;;;;;;5.28;2.50;;;;;;;1.03;100.00;100548.25;4835814;29;20065;-68
2023/11/28 08:39:56;;;;;;;4.50;2.67;;;;;;;1.10;100.00;100543.69;4850030;29;20045;-69
2023/11/28 08:42:45;;;;;;;4.30;2.30;;;;;;;1.07;100.00;100554.84;4845457;29;20081;-67
2023/11/28 08:45:34;;;;;;;4.55;2.42;;;;;;;1.11;100.00;100569.50;4835861;29;20053;-67
2023/11/28 08:48:22;;;;;;;7.03;2.58;;;;;;;1.22;100.00;100568.81;4839666;29;20046;-67
2023/11/28 08:51:10;;;;;;;4.43;2.30;;;;;;;1.28;100.00;100572.53;4823122;29;20530;-67
2023/11/28 08:53:58;;;;;;;4.97;2.60;;;;;;;1.27;100.00;100571.72;4826902;29;20059;-68
2023/11/28 08:56:46;;;;;;;3.72;2.42;;;;;;;1.34;100.00;100581.56;4833489;29;20079;-68
2023/11/28 08:59:34;;;;;;;6.68;2.60;;;;;;;1.43;100.00;100569.56;4844997;29;20045;-67
2023/11/28 09:02:22;;;;;;;3.30;2.30;;;;;;;1.45;100.00;100576.38;4827968;29;20054;-69
2023/11/28 09:05:15;;;;;;;3.97;2.40;;;;;;;1.52;100.00;100579.03;4825442;29;20104;-68
2023/11/28 09:08:03;;;;;;;6.45;2.60;;;;;;;1.58;100.00;100580.84;4825887;29;20052;-67
2023/11/28 09:10:52;;;;;;;4.13;2.70;;;;;;;1.62;100.00;100590.13;4806218;29;20062;-67
2023/11/28 09:13:41;;;;;;;4.47;2.60;;;;;;;1.58;100.00;100588.88;4824441;29;20155;-67
2023/11/28 09:16:29;;;;;;;3.55;2.45;;;;;;;1.57;100.00;100600.69;4847442;29;20058;-67
2023/11/28 09:19:17;;;;;;;4.82;2.30;;;;;;;1.55;100.00;100604.63;4833765;29;20589;-68
2023/11/28 09:22:05;;;;;;;4.40;2.78;;;;;;;1.53;100.00;100604.81;4828269;29;20047;-67
2023/11/28 09:24:53;;;;;;;5.22;2.70;;;;;;;1.54;100.00;100609.16;4816393;29;20065;-67
2023/11/28 09:27:41;;;;;;;7.38;3.55;;;;;;;1.54;100.00;100614.53;4834611;29;20053;-68
2023/11/28 09:30:30;;;;;;;5.07;3.10;;;;;;;1.57;100.00;100611.41;4825471;29;20519;-68
2023/11/28 09:33:18;;;;;;;6.40;3.05;;;;;;;1.59;100.00;100613.88;4828932;29;20054;-68
2023/11/28 09:36:06;;;;;;;4.50;2.50;;;;;;;1.60;100.00;100619.03;4832377;29;20497;-69
2023/11/28 09:38:58;;;;;;;5.47;2.58;;;;;;;1.65;100.00;100615.72;4826336;29;20053;-68
2023/11/28 09:41:46;;;;;;;8.95;3.00;;;;;;;1.73;100.00;100617.31;4823274;29;20046;-68
2023/11/28 09:44:37;;;;;;;5.07;2.72;;;;;;;1.75;100.00;100626.00;4812153;29;20053;-68
2023/11/28 09:47:25;;;;;;;2.63;2.35;;;;;;;1.75;100.00;100632.19;4839755;29;20058;-68
2023/11/28 09:50:14;;;;;;;5.80;2.95;;;;;;;1.81;100.00;100633.22;4810541;29;20198;-68
2023/11/28 09:53:03;;;;;;;4.53;2.55;;;;;;;1.82;100.00;100621.41;4819434;29;20061;-67
2023/11/28 09:55:53;;;;;;;3.00;2.30;;;;;;;1.80;100.00;100626.16;4821882;29;20423;-67
2023/11/28 09:58:41;;;;;;;4.43;2.60;;;;;;;1.80;100.00;100635.03;4812790;29;20146;-68
2023/11/28 10:01:30;;;;;;;3.35;2.22;;;;;;;1.87;100.00;100635.03;4825461;29;20058;-67
2023/11/28 10:04:21;;;;;;;5.20;2.72;;;;;;;1.88;100.00;100632.13;4826182;29;20056;-67
2023/11/28 10:07:10;;;;;;;4.78;2.53;;;;;;;1.91;100.00;100631.69;4813985;29;20145;-69
2023/11/28 10:10:00;;;;;;;3.05;2.50;;;;;;;1.98;100.00;100623.59;4822004;29;20046;-67
2023/11/28 10:12:50;;;;;;;4.50;2.50;;;;;;;2.00;100.00;100634.97;4836205;29;20522;-67
2023/11/28 10:15:42;;;;;;;5.72;2.38;;;;;;;2.07;100.00;100630.38;4838600;29;20050;-68
2023/11/28 10:18:31;;;;;;;2.60;2.40;;;;;;;2.09;100.00;100638.19;4840896;29;20515;-68
2023/11/28 10:21:19;;;;;;;5.25;2.50;;;;;;;2.09;100.00;100635.50;4825866;29;20038;-68
2023/11/28 10:24:08;;;;;;;3.97;2.60;;;;;;;2.06;100.00;100639.44;4830844;29;21080;-69
2023/11/28 10:26:57;;;;;;;6.88;2.72;;;;;;;2.05;100.00;100642.38;4834003;29;20515;-68
2023/11/28 10:29:45;;;;;;;3.30;2.40;;;;;;;2.12;100.00;100635.09;4828166;29;20428;-69
2023/11/28 10:32:33;;;;;;;4.10;2.75;;;;;;;2.18;100.00;100636.06;4848350;29;20054;-69
2023/11/28 10:35:22;;;;;;;4.88;2.50;;;;;;;2.18;100.00;100636.06;4845143;29;20060;-68
2023/11/28 10:38:17;;;;;;;5.60;2.67;;;;;;;2.08;100.00;100639.25;4807768;29;20145;-67
2023/11/28 10:41:06;;;;;;;4.57;2.42;;;;;;;2.09;100.00;100636.34;4814595;29;20503;-68
2023/11/28 10:43:54;;;;;;;4.88;2.78;;;;;;;2.12;100.00;100633.22;4844329;29;20064;-69
2023/11/28 10:46:42;;;;;;;8.50;2.85;;;;;;;2.13;100.00;100634.84;4830385;29;20125;-68
2023/11/28 10:49:30;;;;;;;5.43;2.97;;;;;;;2.20;100.00;100628.63;4837493;29;20058;-69
2023/11/28 10:52:19;;;;;;;4.22;2.70;;;;;;;2.23;100.00;100625.50;4838390;29;20519;-69
2023/11/28 10:55:09;;;;;;;4.35;2.90;;;;;;;2.23;100.00;100636.25;4834330;29;20062;-69
2023/11/28 10:58:05;;;;;;;5.50;2.60;;;;;;;2.30;100.00;100632.47;4818478;29;20072;-69
2023/11/28 11:00:55;;;;;;;7.55;3.15;;;;;;;2.32;100.00;100626.88;4832155;29;20129;-68
2023/11/28 11:03:45;;;;;;;5.32;2.60;;;;;;;2.31;100.00;100623.38;4843672;29;20578;-69
2023/11/28 11:06:33;;;;;;;4.20;3.15;;;;;;;2.32;100.00;100624.19;4833197;29;20547;-65
2023/11/28 11:09:24;;;;;;;6.32;3.45;;;;;;;2.30;100.00;100632.47;4839355;29;20053;-67
2023/11/28 11:12:14;;;;;;;4.43;2.67;;;;;;;2.29;100.00;100633.53;4828119;29;20042;-67
2023/11/28 11:15:29;;;;;;;3.38;2.47;;;;;;;2.28;100.00;100628.34;4825699;29;20092;-68
2023/11/28 11:18:30;;;;;;;5.72;2.53;;;;;;;2.26;100.00;100633.13;4835819;29;20074;-69
2023/11/28 11:21:35;;;;;;;8.70;2.85;;;;;;;2.28;100.00;100633.72;4842067;29;20057;-68
2023/11/28 11:24:25;;;;;;;4.57;2.65;;;;;;;2.30;100.00;100634.34;4843917;29;20058;-69
2023/11/28 11:27:13;;;;;;;3.35;2.58;;;;;;;2.24;99.95;100638.72;4844176;29;20101;-68
2023/11/28 11:30:05;;;;;;;4.53;2.50;;;;;;;2.25;100.00;100637.66;4813172;29;20055;-68
2023/11/28 11:32:55;;;;;;;4.22;2.67;;;;;;;2.32;100.00;100641.13;4813154;29;20211;-69
2023/11/28 11:36:10;;;;;;;2.60;2.22;;;;;;;2.37;100.00;100634.28;4836137;29;20140;-67
2023/11/28 11:38:58;;;;;;;3.72;2.50;;;;;;;2.39;100.00;100638.41;4830697;29;20133;-68
2023/11/28 11:41:46;;;;;;;3.10;2.50;;;;;;;2.42;100.00;100632.59;4825084;29;20090;-67
2023/11/28 11:44:34;;;;;;;4.15;2.42;;;;;;;2.45;100.00;100632.13;4824514;29;20054;-67
2023/11/28 11:47:26;;;;;;;4.30;2.70;;;;;;;2.46;100.00;100631.13;4818557;29;20513;-68
2023/11/28 11:50:19;;;;;;;4.15;2.65;;;;;;;2.45;100.00;100637.50;4819137;29;20042;-67
2023/11/28 11:53:23;;;;;;;3.30;2.42;;;;;;;2.45;100.00;100639.38;4843125;29;20065;-67
2023/11/28 11:56:11;;;;;;;4.25;2.60;;;;;;;2.45;100.00;100634.81;4843365;29;20050;-65
2023/11/28 11:59:03;;;;;;;4.82;2.70;;;;;;;2.46;100.00;100639.19;4814237;29;20130;-65
2023/11/28 12:01:52;;;;;;;2.92;2.10;;;;;;;2.49;100.00;100640.59;4812087;29;20127;-67
2023/11/28 12:04:42;;;;;;;6.13;2.50;;;;;;;2.51;100.00;100649.28;4833936;29;20054;-67
2023/11/28 12:07:31;;;;;;;3.35;2.40;;;;;;;2.52;98.79;100640.97;4830507;29;20050;-66
2023/11/28 12:10:20;;;;;;;5.15;2.88;;;;;;;2.54;100.00;100651.53;4842611;29;20098;-66
2023/11/28 12:13:12;;;;;;;3.97;2.80;;;;;;;2.59;100.00;100650.88;4840406;29;20073;-67
2023/11/28 12:16:04;;;;;;;4.90;2.90;;;;;;;2.58;100.00;100650.06;4826069;29;20559;-67
2023/11/28 12:18:52;;;;;;;4.10;2.97;;;;;;;2.58;100.00;100652.75;4814203;29;20046;-67
2023/11/28 12:21:41;;;;;;;5.07;3.00;;;;;;;2.58;100.00;100657.31;4826035;29;20050;-67
2023/11/28 12:24:30;;;;;;;4.75;2.85;;;;;;;2.59;100.00;100653.56;4833651;29;20075;-67
2023/11/28 12:27:18;;;;;;;7.28;3.10;;;;;;;2.55;100.00;100659.38;4816396;29;20047;-68
2023/11/28 12:30:07;;;;;;;5.68;2.85;;;;;;;2.56;100.00;100658.34;4833279;29;20052;-65
2023/11/28 12:32:55;;;;;;;6.70;3.53;;;;;;;2.58;100.00;100654.63;4841843;29;20063;-67
2023/11/28 12:35:49;;;;;;;6.47;3.38;;;;;;;2.60;100.00;100655.19;4840559;29;20046;-67
2023/11/28 12:38:37;;;;;;;5.32;3.42;;;;;;;2.62;100.00;100655.81;4856187;29;20083;-65
2023/11/28 12:41:40;;;;;;;5.30;3.00;;;;;;;2.62;100.00;100659.34;4859574;29;20041;-65
2023/11/28 12:44:29;;;;;;;4.68;3.00;;;;;;;2.65;100.00;100663.47;4846027;29;20058;-68
2023/11/28 12:47:18;;;;;;;6.20;3.20;;;;;;;2.68;100.00;100673.75;4828518;29;20419;-68
2023/11/28 12:50:08;;;;;;;6.43;3.33;;;;;;;2.69;100.00;100680.78;4843391;29;20050;-67
2023/11/28 12:52:56;;;;;;;6.95;3.00;;;;;;;2.70;100.00;100682.44;4841480;29;20134;-67
2023/11/28 12:55:47;;;;;;;5.57;3.20;;;;;;;2.70;100.00;100672.50;4830023;29;20046;-67
2023/11/28 12:58:35;;;;;;;4.70;2.90;;;;;;;2.73;100.00;100682.81;4841182;29;20069;-68
2023/11/28 13:01:27;;;;;;;9.05;3.28;;;;;;;2.76;100.00;100677.00;4822627;29;20145;-68
2023/11/28 13:04:15;;;;;;;5.93;3.03;;;;;;;2.77;100.00;100684.03;4832658;29;20053;-67
2023/11/28 13:07:03;;;;;;;4.38;2.90;;;;;;;2.81;100.00;100681.72;4842089;29;20057;-67